MSC Paola — 9HA2581 — position and weather

sailwx.info

Track history (hours):
 
Tides and Currents Weather Stations Pressure Air Temp Water Temp Dewpoint Dewpoint Depression Visibility Wind Speed Wind Dir Waves Ship Positions

MSC Paola

Last reported at 2017-Mar-27 06:33 UTC. Time now 2017-Mar-27 06:38 UTC.
Position N 39°02' W 009°54'.

Length 243 m; draft 8.2 m.

Type: Ship (hazmat cat A). MMSI: 248931000.

Date/timePositionNaut miles runAvg speedWind from/ knotsBaromVisibWave heightAir tempDewpointWater temp
2017-Mar-27 06:33N 39°02' W 009°54'1312.6
2017-Mar-27 05:33N 38°49' W 009°53'1515.3
2017-Mar-27 04:34N 38°34' W 009°50'1515.3
2017-Mar-27 03:34N 38°19' W 009°45'1615.6
2017-Mar-27 02:34N 38°04' W 009°41'1615.6
2017-Mar-27 01:34N 37°49' W 009°36'1515.3
2017-Mar-27 00:33N 37°34' W 009°31'  
2017-Mar-22 13:31N 15°53' W 017°37'2218.8
2017-Mar-22 12:21N 15°31' W 017°38'4118.9
2017-Mar-22 10:10N 14°50' W 017°38'1219.2
2017-Mar-22 09:33N 14°38' W 017°38'3819.2
2017-Mar-22 07:33N 13°60' W 017°35'19018.4
2017-Mar-21 21:17N 10°53' W 017°03'3418.7
2017-Mar-21 19:29N 10°24' W 016°45'1718.7
2017-Mar-21 18:33N 10°10' W 016°35'1818.4
2017-Mar-21 17:34N 09°55' W 016°24'2218.5
2017-Mar-21 16:21N 09°37' W 016°11'1418.4
2017-Mar-21 15:34N 09°25' W 016°03'1918.6
2017-Mar-21 14:34N 09°10' W 015°52'2618.6
2017-Mar-21 13:10N 08°53' W 015°33'1218.7
2017-Mar-21 12:34N 08°46' W 015°23'2119.3
2017-Mar-21 11:28N 08°33' W 015°06'1820.1
2017-Mar-21 10:34N 08°22' W 014°51'  
Track history (hours):
 
Tides and Currents Weather Stations Pressure Air Temp Water Temp Dewpoint Dewpoint Depression Visibility Wind Speed Wind Dir Waves Ship Positions

MSC Paola

Last reported at 2017-Mar-27 06:33 UTC. Time now 2017-Mar-27 06:38 UTC.
Position N 39°02' W 009°54'.

Length 243 m; draft 8.2 m.

Type: Ship (hazmat cat A). MMSI: 248931000.

Date/timePositionNaut miles runAvg speedWind from/ knotsBaromVisibWave heightAir tempDewpointWater temp
2017-Mar-27 06:33N 39°02' W 009°54'1312.6
2017-Mar-27 05:33N 38°49' W 009°53'1515.3
2017-Mar-27 04:34N 38°34' W 009°50'1515.3
2017-Mar-27 03:34N 38°19' W 009°45'1615.6
2017-Mar-27 02:34N 38°04' W 009°41'1615.6
2017-Mar-27 01:34N 37°49' W 009°36'1515.3
2017-Mar-27 00:33N 37°34' W 009°31'  
2017-Mar-22 13:31N 15°53' W 017°37'2218.8
2017-Mar-22 12:21N 15°31' W 017°38'4118.9
2017-Mar-22 10:10N 14°50' W 017°38'1219.2
2017-Mar-22 09:33N 14°38' W 017°38'3819.2
2017-Mar-22 07:33N 13°60' W 017°35'19018.4
2017-Mar-21 21:17N 10°53' W 017°03'3418.7
2017-Mar-21 19:29N 10°24' W 016°45'1718.7
2017-Mar-21 18:33N 10°10' W 016°35'1818.4
2017-Mar-21 17:34N 09°55' W 016°24'2218.5
2017-Mar-21 16:21N 09°37' W 016°11'1418.4
2017-Mar-21 15:34N 09°25' W 016°03'1918.6
2017-Mar-21 14:34N 09°10' W 015°52'2618.6
2017-Mar-21 13:10N 08°53' W 015°33'1218.7
2017-Mar-21 12:34N 08°46' W 015°23'2119.3
2017-Mar-21 11:28N 08°33' W 015°06'1820.1
2017-Mar-21 10:34N 08°22' W 014°51'  

Dump ship's entire track history